createdAt,value
2023-05-20T00:00:00.255Z,3.83
2023-05-20T00:02:27.445Z,3.22
2023-05-20T00:04:54.293Z,2.92
2023-05-20T00:07:24.171Z,4.47
2023-05-20T00:09:53.036Z,3.58
2023-05-20T00:12:23.276Z,5.70
2023-05-20T00:14:53.954Z,3.63
2023-05-20T00:17:24.043Z,6.30
2023-05-20T00:19:50.722Z,3.10
2023-05-20T00:22:17.310Z,4.78
2023-05-20T00:24:44.179Z,2.80
2023-05-20T00:27:12.011Z,7.13
2023-05-20T00:29:39.021Z,3.95
2023-05-20T00:32:06.146Z,4.25
2023-05-20T00:34:32.877Z,2.72
2023-05-20T00:37:01.770Z,3.03
2023-05-20T00:39:31.167Z,3.45
2023-05-20T00:42:01.826Z,3.50
2023-05-20T00:46:56.945Z,4.35
2023-05-20T00:49:24.111Z,3.10
2023-05-20T00:51:53.853Z,4.40
2023-05-20T00:54:22.382Z,3.33
2023-05-20T00:56:49.757Z,3.85
2023-05-20T00:59:18.952Z,3.72
2023-05-20T01:01:46.244Z,3.30
2023-05-20T01:04:14.504Z,6.82
2023-05-20T01:06:41.715Z,3.60
2023-05-20T01:09:08.598Z,4.47
2023-05-20T01:11:53.431Z,4.20
2023-05-20T01:14:22.663Z,3.20
2023-05-20T01:16:52.367Z,3.13
2023-05-20T01:19:34.275Z,3.55
2023-05-20T01:22:06.756Z,3.13
2023-05-20T01:24:33.846Z,2.97
2023-05-20T01:27:00.620Z,3.80
2023-05-20T01:29:28.353Z,3.75
2023-05-20T01:31:57.246Z,4.65
2023-05-20T01:34:26.092Z,4.13
2023-05-20T01:36:54.693Z,5.55
2023-05-20T01:39:21.783Z,3.83
2023-05-20T01:41:52.293Z,3.92
2023-05-20T01:44:37.601Z,4.47
2023-05-20T01:47:05.492Z,4.43
2023-05-20T01:49:33.612Z,5.63
2023-05-20T01:52:00.486Z,6.53
2023-05-20T01:54:27.238Z,4.30
2023-05-20T01:56:54.257Z,5.88
2023-05-20T01:59:21.110Z,5.03
2023-05-20T02:01:51.138Z,3.78
2023-05-20T02:04:30.449Z,5.50
2023-05-20T02:06:57.353Z,5.55
2023-05-20T02:09:24.573Z,4.05
2023-05-20T02:11:53.570Z,4.97
2023-05-20T02:14:20.402Z,4.53
2023-05-20T02:16:48.075Z,3.65
2023-05-20T02:19:19.963Z,4.03
2023-05-20T02:21:50.279Z,4.13
2023-05-20T02:24:21.859Z,4.35
2023-05-20T02:26:51.520Z,4.55
2023-05-20T02:29:18.250Z,5.37
2023-05-20T02:31:45.074Z,5.25
2023-05-20T02:34:15.981Z,6.50
2023-05-20T02:36:45.291Z,4.35
2023-05-20T02:41:53.298Z,5.10
2023-05-20T02:44:20.015Z,6.25
2023-05-20T02:46:48.134Z,3.83
2023-05-20T02:49:20.346Z,4.05
2023-05-20T02:51:47.123Z,6.93
2023-05-20T02:54:17.283Z,5.13
2023-05-20T02:56:43.954Z,4.32
2023-05-20T02:59:11.777Z,4.57
2023-05-20T03:01:41.145Z,6.63
2023-05-20T03:04:11.884Z,4.45
2023-05-20T03:06:38.646Z,6.30
2023-05-20T03:09:06.458Z,3.97
2023-05-20T03:11:35.268Z,4.10
2023-05-20T03:14:02.799Z,4.63
2023-05-20T03:16:30.134Z,5.53
2023-05-20T03:18:59.205Z,4.95
2023-05-20T03:21:27.040Z,4.68
2023-05-20T03:23:56.264Z,6.55
2023-05-20T03:26:25.940Z,5.07
2023-05-20T03:28:54.195Z,4.07
2023-05-20T03:31:21.233Z,5.30
2023-05-20T03:33:50.128Z,5.90
2023-05-20T03:36:18.059Z,6.03
2023-05-20T03:38:45.433Z,5.03
2023-05-20T03:41:12.134Z,5.28
2023-05-20T03:43:38.778Z,5.45
2023-05-20T03:46:07.448Z,8.20
2023-05-20T03:48:35.348Z,4.78
2023-05-20T03:51:02.087Z,6.55
2023-05-20T03:53:28.957Z,5.13
2023-05-20T03:55:56.523Z,9.85
2023-05-20T03:58:23.690Z,6.97
2023-05-20T04:00:51.239Z,4.75
2023-05-20T04:03:20.067Z,5.32
2023-05-20T04:05:47.661Z,5.40
2023-05-20T04:08:14.693Z,8.25
2023-05-20T04:10:43.102Z,5.25
2023-05-20T04:13:12.438Z,5.82
2023-05-20T04:15:40.148Z,5.63
2023-05-20T04:18:07.072Z,6.55
2023-05-20T04:20:36.563Z,6.72
2023-05-20T04:23:05.579Z,7.25
2023-05-20T04:25:33.426Z,5.25
2023-05-20T04:28:02.169Z,5.70
2023-05-20T04:30:30.724Z,4.95
2023-05-20T04:32:57.646Z,5.32
2023-05-20T04:35:29.787Z,5.15
2023-05-20T04:38:05.663Z,6.60
2023-05-20T04:40:33.753Z,5.97
2023-05-20T04:46:05.618Z,6.13
2023-05-20T04:48:35.485Z,5.22
2023-05-20T04:51:10.705Z,7.88
2023-05-20T04:53:37.687Z,6.05
2023-05-20T04:56:06.224Z,6.70
2023-05-20T04:58:36.937Z,5.60
2023-05-20T05:01:10.449Z,6.13
2023-05-20T05:03:37.237Z,4.93
2023-05-20T05:06:07.089Z,4.80
2023-05-20T05:08:44.796Z,8.35
2023-05-20T05:13:54.207Z,5.38
2023-05-20T05:16:23.144Z,7.07
2023-05-20T05:18:49.897Z,6.80
2023-05-20T05:21:16.897Z,4.88
2023-05-20T05:23:44.129Z,8.60
2023-05-20T05:26:11.941Z,7.78
2023-05-20T05:31:24.345Z,6.88
2023-05-20T05:33:52.221Z,6.25
2023-05-20T05:36:22.107Z,8.25
2023-05-20T05:38:53.946Z,5.85
2023-05-20T05:41:21.789Z,7.80
2023-05-20T05:43:49.505Z,8.93
2023-05-20T05:46:16.706Z,8.68
2023-05-20T05:48:46.154Z,7.07
2023-05-20T05:51:13.552Z,6.70
2023-05-20T05:53:45.357Z,7.18
2023-05-20T05:56:15.861Z,6.65
2023-05-20T05:58:43.379Z,7.85
2023-05-20T06:03:56.576Z,5.75
2023-05-20T06:06:24.125Z,7.22
2023-05-20T06:08:51.043Z,9.63
2023-05-20T06:11:18.202Z,6.82
2023-05-20T06:13:47.575Z,6.47
2023-05-20T06:16:24.350Z,6.18
2023-05-20T06:18:54.622Z,8.35
2023-05-20T06:21:24.635Z,6.88
2023-05-20T06:23:51.577Z,8.10
2023-05-20T06:26:20.582Z,6.63
2023-05-20T06:28:52.308Z,9.18
2023-05-20T06:31:20.158Z,6.78
2023-05-20T06:33:47.921Z,8.55
2023-05-20T06:36:19.318Z,9.05
2023-05-20T06:38:46.119Z,7.50
2023-05-20T06:41:13.943Z,8.75
2023-05-20T06:43:48.299Z,9.02
2023-05-20T06:46:17.535Z,7.30
2023-05-20T06:48:46.149Z,7.32
2023-05-20T06:51:14.598Z,9.07
2023-05-20T06:53:41.632Z,8.27
2023-05-20T06:58:53.625Z,7.13
2023-05-20T07:01:22.308Z,7.07
2023-05-20T07:03:49.380Z,6.80
2023-05-20T07:06:22.277Z,7.65
2023-05-20T07:08:53.386Z,7.22
2023-05-20T07:11:21.456Z,9.10
2023-05-20T07:13:54.157Z,8.10
2023-05-20T07:16:28.801Z,8.13
2023-05-20T07:21:39.660Z,9.50
2023-05-20T07:24:09.530Z,10.63
2023-05-20T07:29:22.886Z,10.20
2023-05-20T07:32:08.807Z,12.23
2023-05-20T07:34:37.545Z,8.90
2023-05-20T07:37:08.610Z,10.52
2023-05-20T07:42:53.404Z,9.93
2023-05-20T07:45:20.412Z,11.57
2023-05-20T07:47:48.633Z,12.38
2023-05-20T07:53:04.446Z,9.18
2023-05-20T07:55:34.692Z,11.13
2023-05-20T08:00:48.022Z,12.27
2023-05-20T08:03:20.200Z,9.57
2023-05-20T08:05:46.913Z,9.23
2023-05-20T08:08:16.676Z,9.35
2023-05-20T08:13:28.725Z,9.25
2023-05-20T08:18:39.779Z,12.65
2023-05-20T08:21:10.292Z,8.50
2023-05-20T08:26:19.595Z,9.65
2023-05-20T08:34:15.016Z,10.80
2023-05-20T08:36:44.965Z,11.63
2023-05-20T08:39:21.556Z,10.63
2023-05-20T08:41:54.477Z,9.30
2023-05-20T08:44:29.903Z,11.00
2023-05-20T08:46:59.248Z,9.57
2023-05-20T08:49:35.892Z,10.63
2023-05-20T08:52:04.675Z,10.63
2023-05-20T08:54:58.599Z,9.48
2023-05-20T08:57:29.331Z,10.68
2023-05-20T09:02:46.768Z,13.77
2023-05-20T09:05:14.765Z,10.00
2023-05-20T09:10:37.533Z,11.00
2023-05-20T09:13:15.783Z,11.98
2023-05-20T09:15:50.030Z,9.77
2023-05-20T09:18:23.600Z,9.40
2023-05-20T09:21:29.614Z,11.02
2023-05-20T09:24:11.424Z,11.85
2023-05-20T09:26:43.087Z,9.57
2023-05-20T09:29:23.898Z,12.80
2023-05-20T09:32:17.384Z,10.55
2023-05-20T09:35:04.468Z,10.43
2023-05-20T09:40:21.712Z,9.65
2023-05-20T09:43:14.873Z,10.45
2023-05-20T09:45:45.229Z,10.20
2023-05-20T09:51:16.065Z,9.73
2023-05-20T09:53:52.569Z,9.98
2023-05-20T09:56:33.868Z,11.18
2023-05-20T09:59:09.008Z,10.10
2023-05-20T10:01:38.062Z,10.77
2023-05-20T10:04:08.734Z,11.43
2023-05-20T10:07:15.625Z,10.57
2023-05-20T10:10:20.184Z,9.70
2023-05-20T10:13:20.524Z,9.80
2023-05-20T10:16:28.850Z,10.82
2023-05-20T10:21:45.310Z,12.02
2023-05-20T10:24:14.714Z,11.57
2023-05-20T10:26:43.130Z,10.75
2023-05-20T10:29:20.202Z,10.98
2023-05-20T10:32:10.050Z,11.80
2023-05-20T10:37:50.233Z,13.45
2023-05-20T10:40:23.057Z,10.73
2023-05-20T10:42:53.069Z,10.65
2023-05-20T10:45:39.952Z,11.40
2023-05-20T10:48:07.322Z,10.43
2023-05-20T10:50:37.658Z,9.70
2023-05-20T10:53:34.577Z,11.63
2023-05-20T10:56:03.062Z,10.02
2023-05-20T10:58:41.206Z,10.65
2023-05-20T11:01:08.238Z,9.85
2023-05-20T11:03:45.821Z,9.73
2023-05-20T11:09:31.493Z,12.30
2023-05-20T11:11:58.839Z,9.93
2023-05-20T11:14:28.892Z,10.23
2023-05-20T11:19:43.183Z,10.02
2023-05-20T11:25:07.332Z,9.88
2023-05-20T11:30:28.298Z,9.15
2023-05-20T11:33:14.581Z,9.27
2023-05-20T11:35:57.789Z,9.93
2023-05-20T11:38:24.857Z,10.77
2023-05-20T11:41:00.157Z,10.27
2023-05-20T11:46:10.793Z,10.02
2023-05-20T11:54:20.566Z,10.75
2023-05-20T11:56:47.292Z,9.20
2023-05-20T11:59:15.522Z,9.50
2023-05-20T12:01:44.639Z,11.60
2023-05-20T12:04:21.024Z,9.30
2023-05-20T12:06:57.876Z,9.73
2023-05-20T12:09:27.264Z,8.73
2023-05-20T12:12:00.629Z,8.98
2023-05-20T12:14:43.241Z,10.60
2023-05-20T12:17:20.447Z,11.10
2023-05-20T12:19:48.841Z,9.23
2023-05-20T12:22:30.027Z,9.38
2023-05-20T12:27:40.816Z,11.85
2023-05-20T12:30:24.583Z,14.07
2023-05-20T12:35:44.202Z,11.45
2023-05-20T12:38:13.387Z,11.50
2023-05-20T12:40:43.040Z,10.65
2023-05-20T12:45:56.082Z,12.95
2023-05-20T12:48:29.889Z,15.23
2023-05-20T12:50:57.108Z,11.82
2023-05-20T12:53:29.680Z,11.35
2023-05-20T12:55:59.821Z,10.90
2023-05-20T12:58:33.961Z,12.23
2023-05-20T13:01:12.566Z,12.45
2023-05-20T13:09:20.455Z,13.27
2023-05-20T13:11:56.997Z,11.73
2023-05-20T13:20:01.456Z,12.07
2023-05-20T13:22:38.685Z,12.05
2023-05-20T13:25:09.748Z,13.52
2023-05-20T13:30:25.549Z,11.35
2023-05-20T13:32:52.645Z,17.70
2023-05-20T13:35:23.400Z,12.05
2023-05-20T13:43:29.322Z,12.60
2023-05-20T13:53:24.371Z,11.52
2023-05-20T14:04:09.652Z,11.60
2023-05-20T14:06:49.110Z,11.30
2023-05-20T14:12:00.304Z,12.68
2023-05-20T14:19:51.115Z,11.20
2023-05-20T14:30:53.268Z,13.00
2023-05-20T14:41:55.901Z,11.52
2023-05-20T14:44:44.019Z,11.85
2023-05-20T15:04:55.704Z,12.52
2023-05-20T15:07:29.802Z,11.20
2023-05-20T15:19:13.228Z,11.77
2023-05-20T15:21:45.257Z,11.90
2023-05-20T15:27:12.407Z,11.23
2023-05-20T15:39:22.049Z,11.60
2023-05-20T15:41:54.647Z,10.38
2023-05-20T16:09:52.255Z,13.13
2023-05-20T16:12:31.258Z,11.77
2023-05-20T16:21:40.580Z,13.90
2023-05-20T16:24:15.011Z,11.50
2023-05-20T16:26:42.009Z,11.50
2023-05-20T16:29:18.785Z,13.05
2023-05-20T16:40:08.533Z,12.63
2023-05-20T16:48:13.041Z,12.52
2023-05-20T16:50:40.153Z,14.18
2023-05-20T16:53:07.524Z,13.27
2023-05-20T17:00:46.457Z,12.35
2023-05-20T17:03:25.167Z,11.90
2023-05-20T17:06:16.202Z,20.08
2023-05-20T17:08:51.330Z,13.07
2023-05-20T17:11:20.020Z,13.05
2023-05-20T17:13:47.067Z,13.57
2023-05-20T17:24:28.899Z,13.73
2023-05-20T17:32:58.334Z,14.80
2023-05-20T17:35:26.471Z,14.63
2023-05-20T17:37:55.785Z,15.50
2023-05-20T17:43:19.002Z,14.85
2023-05-20T17:48:29.329Z,15.02
2023-05-20T17:53:45.884Z,16.60
2023-05-20T18:01:49.299Z,19.25
2023-05-20T18:04:17.891Z,16.48
2023-05-20T18:06:46.780Z,17.98
2023-05-20T18:14:37.807Z,18.00
2023-05-20T18:19:49.893Z,17.63
2023-05-20T18:22:17.234Z,18.13
2023-05-20T18:30:47.330Z,17.25
2023-05-20T18:39:24.445Z,17.25
2023-05-20T18:41:54.197Z,16.58
2023-05-20T18:44:24.406Z,18.65
2023-05-20T18:49:43.717Z,20.95
2023-05-20T19:07:46.508Z,20.90
2023-05-20T19:12:57.991Z,20.30
2023-05-20T19:18:09.294Z,18.80
2023-05-20T19:20:51.480Z,21.08
2023-05-20T19:25:59.922Z,24.33
2023-05-20T19:31:31.167Z,23.85
2023-05-20T19:33:58.131Z,21.48
2023-05-20T19:36:30.123Z,20.50
2023-05-20T19:38:58.392Z,23.00
2023-05-20T19:41:25.258Z,23.17
2023-05-20T19:43:53.487Z,20.58
2023-05-20T19:46:25.077Z,22.95
2023-05-20T19:49:02.557Z,21.25
2023-05-20T19:51:36.425Z,21.70
2023-05-20T19:56:53.496Z,22.48
2023-05-20T19:59:23.042Z,22.45
2023-05-20T20:04:39.487Z,23.60
2023-05-20T20:07:27.031Z,22.73
2023-05-20T20:10:02.406Z,20.40
2023-05-20T20:15:17.135Z,24.58
2023-05-20T20:20:59.787Z,21.95
2023-05-20T20:23:31.137Z,21.88
2023-05-20T20:28:50.571Z,21.40
2023-05-20T20:39:41.665Z,27.02
2023-05-20T20:42:19.328Z,23.05
2023-05-20T20:45:26.491Z,20.52
2023-05-20T20:47:56.462Z,22.00
2023-05-20T20:50:26.183Z,22.92
2023-05-20T20:52:57.838Z,23.55
2023-05-20T20:58:28.390Z,23.77
2023-05-20T21:01:06.868Z,21.93
2023-05-20T21:03:40.400Z,23.98
2023-05-20T21:06:08.124Z,22.08
2023-05-20T21:08:36.638Z,22.35
2023-05-20T21:11:05.611Z,21.25
2023-05-20T21:14:09.992Z,22.92
2023-05-20T21:19:21.265Z,19.90
2023-05-20T21:22:04.198Z,24.98
2023-05-20T21:24:55.306Z,25.75
2023-05-20T21:27:21.901Z,20.75
2023-05-20T21:29:51.534Z,20.20
2023-05-20T21:32:18.408Z,20.25
2023-05-20T21:34:45.861Z,22.42
2023-05-20T21:37:12.791Z,21.00
2023-05-20T21:39:53.894Z,21.10
2023-05-20T21:42:28.997Z,28.98
2023-05-20T21:44:57.590Z,23.30
2023-05-20T21:47:26.893Z,21.05
2023-05-20T21:49:55.139Z,21.45
2023-05-20T21:55:02.424Z,20.67
2023-05-20T21:57:29.504Z,20.52
2023-05-20T21:59:56.455Z,21.38
2023-05-20T22:02:23.499Z,20.70
2023-05-20T22:04:54.258Z,23.45
2023-05-20T22:07:20.923Z,21.05
2023-05-20T22:09:49.439Z,22.50
2023-05-20T22:12:24.060Z,21.52
2023-05-20T22:14:54.154Z,20.52
2023-05-20T22:17:27.985Z,20.88
2023-05-20T22:20:00.722Z,20.38
2023-05-20T22:25:14.855Z,19.52
2023-05-20T22:27:45.788Z,19.67
2023-05-20T22:30:20.357Z,22.95
2023-05-20T22:32:49.482Z,19.85
2023-05-20T22:35:17.566Z,20.63
2023-05-20T22:38:00.220Z,21.00
2023-05-20T22:40:28.049Z,22.17
2023-05-20T22:43:00.564Z,22.38
2023-05-20T22:48:12.628Z,19.88
2023-05-20T22:53:23.228Z,19.38
2023-05-20T22:55:56.504Z,20.33
2023-05-20T22:58:41.198Z,20.02
2023-05-20T23:01:11.064Z,21.63
2023-05-20T23:03:43.384Z,21.33
2023-05-20T23:06:16.737Z,21.30
2023-05-20T23:08:51.367Z,20.25
2023-05-20T23:11:18.791Z,20.83
2023-05-20T23:13:49.492Z,21.85
2023-05-20T23:16:16.224Z,21.65
2023-05-20T23:18:47.355Z,19.38
2023-05-20T23:21:17.390Z,21.65
2023-05-20T23:23:45.103Z,20.80
2023-05-20T23:26:13.746Z,25.27
